»·PEaware :: SHTGN22 KSLC-KLSV

SHTGN22 :: KSLC-KLSV

FLIGHT INFORMATION

Flight Status: Arrived
Operator: Unknown
More flights by this operator :: More flights under this callsign
Pilot: Sean B. (13609)
Aircraft: MCDONNELL-DOUGLAS FA-18 HORNET
(F18)
More flights by this aircraft type
Origin: KSLC Salt Lake City Intl
United States
Destination: KLSV Nellis AFB
United States
More flights between these airports :: More routes between these airports
Route: +EDETH5 BERYL V21 MMM
File this flight plan on PilotEdge
Remarks:
Altitude:
(Current/Filed)
36,000ft
Speed:
(Current/Filed)
500kts
Departed: 17-Oct-17 02:01 PM
Arrived: 17-Oct-17 02:50 PM
Distance/Time
Traveled:
309nm/0:48
Distance/Time
To Go:
Arrived

Flight Plot

Page will automatically refresh every two minutes.

Flight plan parsing failed; only flown route is shown


Map Options




Map Legend


Flown Route
Filed Route
Departure Airport
Arrival Airport
Navaid (VOR, NDB)
Fix

Horizontal Profiles

Position Reports

Time Latitude Longitude Heading Altitude Ground
Speed
17-Oct-17 13:37 40.786241 -111.958907 38 4234ft 0kts
17-Oct-17 13:38 40.786241 -111.958907 38 4234ft 0kts
17-Oct-17 13:39 40.786241 -111.958907 38 4234ft 0kts
17-Oct-17 13:40 40.786241 -111.958907 38 4234ft 0kts
17-Oct-17 13:41 40.786241 -111.958907 38 4234ft 0kts
17-Oct-17 13:42 40.786241 -111.958907 38 4234ft 0kts
17-Oct-17 13:43 40.786241 -111.958907 38 4234ft 0kts
17-Oct-17 13:44 40.786241 -111.958907 38 4234ft 0kts
17-Oct-17 13:45 40.786241 -111.958907 38 4234ft 0kts
17-Oct-17 13:46 40.786241 -111.958907 38 4234ft 0kts
17-Oct-17 13:47 40.786241 -111.958907 38 4234ft 0kts
17-Oct-17 13:48 40.786241 -111.958907 38 4234ft 0kts
17-Oct-17 13:49 40.786241 -111.958907 38 4234ft 0kts
17-Oct-17 13:50 40.786241 -111.958907 38 4234ft 0kts
17-Oct-17 13:51 40.786241 -111.958907 38 4234ft 0kts
17-Oct-17 13:52 40.786241 -111.958907 38 4234ft 0kts
17-Oct-17 13:53 40.786241 -111.958907 38 4234ft 0kts
17-Oct-17 13:54 40.786241 -111.958907 38 4234ft 0kts
17-Oct-17 13:55 40.786241 -111.958907 38 4234ft 0kts
17-Oct-17 13:56 40.786241 -111.958907 38 4234ft 0kts
17-Oct-17 13:57 40.786825 -111.958451 1 4234ft 8kts
17-Oct-17 13:58 40.790184 -111.959202 269 4234ft 5kts
17-Oct-17 13:59 40.790184 -111.959239 269 4234ft 0kts
17-Oct-17 14:00 40.789413 -111.960008 180 4234ft 14kts
17-Oct-17 14:01 40.784973 -111.960005 180 4234ft 16kts
17-Oct-17 14:02 40.779924 -111.960011 180 4234ft 20kts
17-Oct-17 14:03 40.775652 -111.960634 179 4234ft 16kts
17-Oct-17 14:04 40.772744 -111.960820 242 4234ft 0kts
17-Oct-17 14:05 40.773130 -111.962065 349 4234ft 12kts
17-Oct-17 14:06 40.813273 -111.966867 316 6486ft 260kts
17-Oct-17 14:07 40.822914 -112.055726 275 10578ft 290kts
17-Oct-17 14:08 40.816228 -112.184817 253 16903ft 405kts
17-Oct-17 14:09 40.735631 -112.274803 192 22895ft 455kts
17-Oct-17 14:10 40.607275 -112.302508 193 29137ft 464kts
17-Oct-17 14:11 40.482208 -112.326066 196 33604ft 469kts
17-Oct-17 14:12 40.350955 -112.351955 196 35913ft 499kts
17-Oct-17 14:13 40.230881 -112.432006 214 36352ft 501kts
17-Oct-17 14:14 40.109621 -112.517569 214 36268ft 502kts
17-Oct-17 14:15 39.990451 -112.603510 215 36238ft 502kts
17-Oct-17 14:16 39.873671 -112.686509 212 36215ft 504kts
17-Oct-17 14:17 39.752076 -112.769659 213 36169ft 503kts
17-Oct-17 14:18 39.625290 -112.836181 199 36150ft 517kts
17-Oct-17 14:19 39.490469 -112.881166 201 36253ft 515kts
17-Oct-17 14:20 39.356183 -112.927401 200 36229ft 516kts
17-Oct-17 14:21 39.221761 -112.970334 199 36241ft 519kts
17-Oct-17 14:22 39.086462 -113.012944 200 36241ft 518kts
17-Oct-17 14:23 38.951677 -113.057636 200 36264ft 519kts
17-Oct-17 14:24 38.819673 -113.098993 198 36211ft 515kts
17-Oct-17 14:25 38.685711 -113.142879 199 36203ft 509kts
17-Oct-17 14:26 38.550770 -113.183198 196 36187ft 511kts
17-Oct-17 14:27 38.416549 -113.225859 197 36233ft 510kts
17-Oct-17 14:28 38.284160 -113.267543 198 36207ft 509kts
17-Oct-17 14:29 38.148898 -113.309603 198 36178ft 509kts
17-Oct-17 14:30 38.015211 -113.350466 198 36202ft 510kts
17-Oct-17 14:31 37.884174 -113.392496 205 36225ft 505kts
17-Oct-17 14:32 37.773177 -113.486959 217 36208ft 498kts
17-Oct-17 14:33 37.660828 -113.580499 217 36258ft 498kts
17-Oct-17 14:34 37.549438 -113.669618 215 36276ft 499kts
17-Oct-17 14:35 37.434504 -113.756154 213 36198ft 495kts
17-Oct-17 14:36 37.322674 -113.841965 216 34557ft 492kts
17-Oct-17 14:37 37.210042 -113.934728 214 32697ft 503kts
17-Oct-17 14:38 37.094840 -114.025350 214 30603ft 515kts
17-Oct-17 14:39 36.977405 -114.118519 214 28728ft 522kts
17-Oct-17 14:40 36.861830 -114.209377 213 25610ft 539kts
17-Oct-17 14:41 36.743533 -114.308833 225 24121ft 535kts
17-Oct-17 14:42 36.653240 -114.449272 228 23111ft 526kts
17-Oct-17 14:43 36.562679 -114.577882 229 15757ft 503kts
17-Oct-17 14:44 36.480760 -114.693777 230 11889ft 410kts
17-Oct-17 14:45 36.413487 -114.789934 230 11902ft 373kts
17-Oct-17 14:46 36.345874 -114.881916 228 11911ft 359kts
17-Oct-17 14:47 36.279017 -114.965734 225 11939ft 352kts
17-Oct-17 14:48 36.226387 -115.058794 292 11610ft 334kts
17-Oct-17 14:49 36.292035 -115.025610 43 8587ft 300kts
17-Oct-17 14:50 36.348674 -114.955798 46 7974ft 290kts
17-Oct-17 14:51 36.307868 -114.929924 223 6451ft 294kts
17-Oct-17 14:52 36.259450 -115.007237 237 3494ft 311kts
17-Oct-17 14:53 36.260945 -115.039948 48 2634ft 208kts
17-Oct-17 14:54 36.244631 -115.027460 221 1882ft 170kts
17-Oct-17 14:55 36.226990 -115.046814 282 1854ft 17kts
17-Oct-17 14:56 36.227327 -115.049467 247 1854ft 7kts
17-Oct-17 14:57 36.227149 -115.049699 221 1854ft 0kts
17-Oct-17 14:58 36.227149 -115.049699 221 1854ft 0kts
17-Oct-17 14:59 36.227149 -115.049699 221 1854ft 0kts
17-Oct-17 15:00 36.227149 -115.049699 221 1854ft 0kts
17-Oct-17 15:01 36.227149 -115.049699 221 1854ft 0kts
17-Oct-17 15:02 36.227149 -115.049699 221 1854ft 0kts

Navigation Log

Ident Type
Flight plan parsing failed, navigation log unavailable